createdAt,value
2018-04-17T07:07:44.991Z,45.79
2018-04-17T07:10:17.313Z,42.44
2018-04-17T07:11:16.853Z,42.05
2018-04-17T07:12:17.019Z,44.93
2018-04-17T07:13:17.188Z,47.53
2018-04-17T07:14:17.355Z,46.77
2018-04-17T07:15:17.525Z,45.90
2018-04-17T07:16:17.693Z,43.03
2018-04-17T07:17:17.864Z,40.90
2018-04-17T07:18:18.085Z,44.27
2018-04-17T07:19:18.238Z,43.41
2018-04-17T07:20:18.419Z,43.41
2018-04-17T07:21:18.597Z,42.65
2018-04-17T07:22:26.441Z,39.56
2018-04-17T07:23:18.978Z,42.94
2018-04-17T07:24:19.149Z,44.18
2018-04-17T07:25:19.319Z,43.41
2018-04-17T07:26:19.487Z,44.18
2018-04-17T07:27:19.653Z,43.60
2018-04-17T07:28:19.820Z,42.74
2018-04-17T07:29:19.995Z,42.46
2018-04-17T07:30:20.167Z,42.65
2018-04-17T07:31:20.336Z,44.40
2018-04-17T07:32:20.508Z,46.79
2018-04-17T07:33:20.680Z,46.98
2018-04-17T07:34:20.857Z,47.56
2018-04-17T07:35:21.018Z,46.89
2018-04-17T07:36:21.188Z,48.74
2018-04-17T07:38:53.485Z,48.64
2018-04-17T07:39:53.655Z,50.37
2018-04-17T07:40:53.827Z,50.49
2018-04-17T07:41:54.000Z,49.31
2018-04-17T07:42:54.150Z,48.35
2018-04-17T07:43:54.319Z,47.01
2018-04-17T07:44:54.489Z,43.44
2018-04-17T07:45:54.659Z,44.01
2018-04-17T07:46:54.841Z,44.32
2018-04-17T07:47:55.018Z,45.37
2018-04-17T07:48:55.189Z,49.50
2018-04-17T07:49:55.360Z,51.06
2018-04-17T07:50:55.523Z,52.69
2018-04-17T07:51:55.696Z,54.55
2018-04-17T07:52:55.886Z,56.66
2018-04-17T07:55:38.451Z,58.80
2018-04-17T07:56:38.613Z,58.42
2018-04-17T07:57:38.793Z,58.61
2018-04-17T07:58:38.961Z,58.70
2018-04-17T07:59:39.132Z,61.11
2018-04-17T08:00:39.296Z,61.61
2018-04-17T08:01:39.473Z,61.04
2018-04-17T08:02:39.640Z,61.33
2018-04-17T08:03:39.819Z,61.23
2018-04-17T08:04:39.992Z,60.37
2018-04-17T08:05:40.161Z,63.25
2018-04-17T08:06:40.334Z,61.16
2018-04-17T08:07:40.496Z,60.17
2018-04-17T08:08:40.674Z,60.85
2018-04-17T08:09:40.852Z,59.47
2018-04-17T08:12:23.123Z,61.01
2018-04-17T08:13:23.289Z,59.69
2018-04-17T08:14:23.463Z,61.23
2018-04-17T08:15:23.632Z,64.60
2018-04-17T08:16:23.812Z,61.33
2018-04-17T08:17:23.976Z,61.04
2018-04-17T08:18:24.147Z,65.50
2018-04-17T08:19:24.317Z,63.51
2018-04-17T08:20:24.484Z,67.16
2018-04-17T08:21:24.665Z,66.88
2018-04-17T08:22:32.505Z,62.74
2018-04-17T08:23:25.047Z,67.19
2018-04-17T08:24:25.219Z,69.31
2018-04-17T08:25:25.398Z,65.94
2018-04-17T08:26:25.588Z,67.00
2018-04-17T08:27:25.765Z,68.32
2018-04-17T08:28:25.936Z,65.81
2018-04-17T08:29:26.111Z,66.30
2018-04-17T08:30:27.250Z,65.30
2018-04-17T08:31:26.469Z,66.10
2018-04-17T08:32:26.634Z,66.81
2018-04-17T08:33:26.808Z,65.66
2018-04-17T08:34:26.979Z,70.12
2018-04-17T08:35:27.150Z,69.35
2018-04-17T08:36:27.329Z,70.73
2018-04-17T08:39:09.902Z,70.92
2018-04-17T08:40:10.079Z,71.79
2018-04-17T08:41:11.149Z,69.96
2018-04-17T08:42:10.439Z,71.92
2018-04-17T08:43:10.609Z,72.21
2018-04-17T08:44:10.770Z,71.92
2018-04-17T08:45:10.957Z,72.15
2018-04-17T08:46:19.071Z,72.58
2018-04-17T08:47:11.235Z,72.28
2018-04-17T08:48:11.404Z,72.58
2018-04-17T08:49:11.580Z,72.09
2018-04-17T08:50:11.750Z,71.51
2018-04-17T08:51:11.922Z,72.02
2018-04-17T08:52:12.088Z,71.38
2018-04-17T08:53:12.268Z,69.90
2018-04-17T08:54:12.432Z,69.57
2018-04-17T08:55:12.603Z,67.74
2018-04-17T08:56:12.788Z,68.32
2018-04-17T08:57:12.960Z,68.80
2018-04-17T08:58:13.128Z,68.04
2018-04-17T08:59:13.302Z,70.06
2018-04-17T09:00:13.473Z,67.36
2018-04-17T09:02:45.755Z,66.46
2018-04-17T09:03:45.929Z,65.69
2018-04-17T09:04:46.098Z,63.12
2018-04-17T09:05:46.267Z,69.38
2018-04-17T09:06:46.437Z,69.09
2018-04-17T09:07:46.830Z,69.77
2018-04-17T09:08:46.785Z,70.15
2018-04-17T09:09:46.963Z,72.47
2018-04-17T09:10:47.132Z,72.47
2018-04-17T09:11:47.323Z,72.60
2018-04-17T09:12:47.473Z,72.31
2018-04-17T09:13:47.644Z,73.66
2018-04-17T09:14:47.815Z,71.83
2018-04-17T09:15:47.985Z,70.28
2018-04-17T09:16:48.168Z,67.30
2018-04-17T09:19:20.469Z,62.22
2018-04-17T09:20:20.644Z,54.79
2018-04-17T09:21:20.810Z,57.71
2018-04-17T09:22:20.983Z,56.58
2018-04-17T09:23:21.154Z,55.07
2018-04-17T09:24:21.352Z,54.32
2018-04-17T09:25:21.526Z,52.97
2018-04-17T09:26:21.695Z,50.76
2018-04-17T09:27:21.869Z,52.00
2018-04-17T09:28:22.050Z,52.94
2018-04-17T09:29:22.266Z,50.84
2018-04-17T09:30:22.384Z,50.35
2018-04-17T09:31:22.779Z,52.89
2018-04-17T09:32:22.740Z,50.70
2018-04-17T09:33:22.910Z,52.63
2018-04-17T09:36:05.260Z,55.63
2018-04-17T09:37:05.377Z,51.76
2018-04-17T09:38:05.551Z,50.89
2018-04-17T09:39:05.727Z,51.56
2018-04-17T09:40:13.852Z,53.11
2018-04-17T09:41:06.014Z,52.53
2018-04-17T09:42:06.197Z,56.79
2018-04-17T09:43:06.362Z,55.34
2018-04-17T09:44:06.533Z,53.21
2018-04-17T09:45:06.709Z,55.73
2018-04-17T09:46:06.889Z,53.41
2018-04-17T09:47:07.063Z,51.88
2018-04-17T09:48:07.237Z,50.82
2018-04-17T09:49:07.413Z,50.26
2018-04-17T09:50:07.586Z,52.49
2018-04-17T09:51:07.764Z,50.84
2018-04-17T09:52:08.744Z,50.45
2018-04-17T09:53:08.168Z,50.52
2018-04-17T09:54:08.347Z,50.62
2018-04-17T09:58:17.036Z,49.99
2018-04-17T09:59:17.208Z,50.02
2018-04-17T10:00:17.382Z,49.00
2018-04-17T10:01:17.559Z,49.10
2018-04-17T10:02:17.733Z,48.90
2018-04-17T10:03:17.908Z,50.55
2018-04-17T10:04:18.090Z,49.10
2018-04-17T10:05:18.262Z,50.45
2018-04-17T10:06:18.450Z,51.72
2018-04-17T10:07:18.610Z,51.72
2018-04-17T10:08:18.788Z,51.88
2018-04-17T10:09:18.961Z,52.08
2018-04-17T10:10:19.124Z,51.62
2018-04-17T10:11:19.299Z,51.42
2018-04-17T10:12:19.472Z,50.07
2018-04-17T10:15:02.369Z,54.32
2018-04-17T10:16:02.170Z,56.47
2018-04-17T10:17:02.345Z,56.60
2018-04-17T10:18:02.555Z,52.92
2018-04-17T10:19:02.703Z,50.93
2018-04-17T10:20:02.894Z,52.67
2018-04-17T10:21:03.065Z,52.19
2018-04-17T10:22:03.238Z,54.25
2018-04-17T10:23:03.409Z,53.31
2018-04-17T10:24:03.581Z,50.79
2018-04-17T10:26:45.868Z,51.68
2018-04-17T10:27:46.902Z,51.81
2018-04-17T10:28:46.209Z,50.74
2018-04-17T10:29:46.372Z,50.48
2018-04-17T10:30:46.530Z,50.67
2018-04-17T10:31:46.730Z,53.89
2018-04-17T10:32:54.652Z,51.66
2018-04-17T10:33:47.097Z,52.66
2018-04-17T10:34:48.926Z,49.97
2018-04-17T10:35:54.821Z,49.00
2018-04-17T10:36:47.493Z,50.96
2018-04-17T10:37:47.807Z,51.35
2018-04-17T10:38:47.806Z,52.87
2018-04-17T10:39:48.033Z,52.80
2018-04-17T10:40:48.178Z,50.31
2018-04-17T10:41:48.349Z,49.32
2018-04-17T10:42:48.518Z,50.07
2018-04-17T10:43:48.688Z,49.70
2018-04-17T10:44:56.533Z,49.80
2018-04-17T10:45:49.098Z,49.90
2018-04-17T10:46:49.273Z,50.84
2018-04-17T10:47:49.445Z,51.83
2018-04-17T10:48:57.492Z,51.56
2018-04-17T10:49:49.782Z,50.12
2018-04-17T10:50:50.438Z,49.17
2018-04-17T10:51:50.176Z,46.77
2018-04-17T10:52:50.432Z,45.73
2018-04-17T10:53:50.581Z,41.47
2018-04-17T10:54:50.869Z,40.96
2018-04-17T10:55:50.940Z,42.80
2018-04-17T10:56:51.105Z,43.31
2018-04-17T10:57:51.281Z,44.29
2018-04-17T10:58:52.395Z,46.10
2018-04-17T10:59:51.656Z,47.00
2018-04-17T11:00:51.815Z,46.90
2018-04-17T11:01:53.021Z,47.19
2018-04-17T11:02:52.175Z,47.84
2018-04-17T11:08:42.821Z,51.29
2018-04-17T11:09:42.996Z,47.65
2018-04-17T11:10:43.165Z,48.52
2018-04-17T11:11:43.371Z,50.33
2018-04-17T11:12:43.513Z,50.69
2018-04-17T11:15:16.342Z,49.58
2018-04-17T11:16:15.728Z,50.81
2018-04-17T11:17:15.832Z,49.65
2018-04-17T11:18:23.933Z,49.27
2018-04-17T11:19:16.109Z,49.37
2018-04-17T11:20:16.277Z,49.58
2018-04-17T11:21:16.439Z,48.01
2018-04-17T11:22:16.641Z,49.82
2018-04-17T11:23:16.810Z,51.17
2018-04-17T11:24:17.064Z,50.98
2018-04-17T11:25:17.122Z,50.21
2018-04-17T11:26:17.289Z,50.11
2018-04-17T11:27:17.529Z,49.99
2018-04-17T11:28:17.619Z,51.44
2018-04-17T11:29:17.795Z,52.40
2018-04-17T11:30:17.965Z,52.89
2018-04-17T11:31:18.145Z,51.15
2018-04-17T11:32:18.303Z,50.57
2018-04-17T11:36:39.593Z,52.98
2018-04-17T11:37:39.782Z,54.14
2018-04-17T11:38:39.956Z,54.33
2018-04-17T11:39:40.120Z,53.08
2018-04-17T11:40:47.726Z,53.47
2018-04-17T11:41:40.393Z,53.17
2018-04-17T11:42:40.738Z,54.14
2018-04-17T11:43:40.838Z,54.53
2018-04-17T11:44:40.954Z,53.85
2018-04-17T11:45:41.113Z,53.85
2018-04-17T11:46:41.292Z,53.59
2018-04-17T11:47:41.463Z,52.43
2018-04-17T11:48:42.454Z,53.49
2018-04-17T11:49:49.597Z,52.94
2018-04-17T11:50:41.885Z,53.33
2018-04-17T11:51:42.072Z,51.37
2018-04-17T11:52:42.216Z,51.92
2018-04-17T11:53:42.396Z,51.82
2018-04-17T11:54:42.582Z,53.53
2018-04-17T11:55:42.752Z,55.08
2018-04-17T11:56:43.079Z,54.21
2018-04-17T11:57:43.325Z,54.31
2018-04-17T11:58:43.246Z,54.79
2018-04-17T11:59:43.419Z,54.21
2018-04-17T12:00:43.641Z,52.86
2018-04-17T12:01:43.809Z,51.00
2018-04-17T12:04:16.403Z,53.13
2018-04-17T12:05:16.614Z,52.42
2018-04-17T12:06:16.780Z,52.64
2018-04-17T12:07:16.977Z,52.81
2018-04-17T12:08:17.154Z,53.61
2018-04-17T12:09:17.327Z,54.47
2018-04-17T12:10:17.494Z,55.82
2018-04-17T12:11:17.664Z,54.54
2018-04-17T12:12:17.846Z,54.25
2018-04-17T12:13:18.029Z,54.54
2018-04-17T12:14:18.194Z,53.03
2018-04-17T12:15:18.374Z,52.25
2018-04-17T12:16:18.566Z,52.06
2018-04-17T12:17:27.392Z,53.39
2018-04-17T12:18:18.929Z,54.66
2018-04-17T12:19:19.103Z,55.34
2018-04-17T12:20:19.278Z,53.19
2018-04-17T12:21:19.478Z,53.58
2018-04-17T12:22:27.563Z,52.25
2018-04-17T12:23:19.782Z,52.83
2018-04-17T12:24:19.907Z,51.58
2018-04-17T12:25:20.112Z,51.94
2018-04-17T12:26:21.217Z,52.04
2018-04-17T12:27:20.512Z,52.25
2018-04-17T12:28:20.917Z,52.45
2018-04-17T12:29:20.917Z,52.55
2018-04-17T12:30:21.100Z,53.31
2018-04-17T12:31:21.321Z,52.83
2018-04-17T12:32:22.594Z,52.73
2018-04-17T12:33:21.630Z,52.16
2018-04-17T12:34:21.794Z,51.87
2018-04-17T12:35:22.002Z,51.68
2018-04-17T12:36:22.372Z,51.29
2018-04-17T12:37:22.330Z,51.39
2018-04-17T12:41:36.887Z,49.65
2018-04-17T12:42:37.060Z,50.13
2018-04-17T12:43:37.229Z,50.81
2018-04-17T12:44:37.398Z,50.84
2018-04-17T12:45:38.407Z,49.90
2018-04-17T12:46:37.705Z,49.60
2018-04-17T12:47:38.418Z,47.67
2018-04-17T12:48:38.099Z,47.58
2018-04-17T12:49:38.422Z,48.25
2018-04-17T12:50:38.413Z,48.74
2018-04-17T12:51:46.863Z,47.89
2018-04-17T12:52:38.671Z,47.41
2018-04-17T12:53:39.398Z,46.15
2018-04-17T12:54:39.857Z,43.74
2018-04-17T12:55:39.156Z,44.32
2018-04-17T12:56:39.321Z,42.31
2018-04-17T12:57:39.487Z,40.77
2018-04-17T12:58:39.797Z,39.87
2018-04-17T12:59:39.866Z,41.33
2018-04-17T13:00:40.040Z,39.86
2018-04-17T13:01:40.200Z,39.95
2018-04-17T13:02:48.334Z,39.18
2018-04-17T13:03:40.547Z,39.28
2018-04-17T13:04:40.739Z,40.53
2018-04-17T13:05:40.805Z,41.69
2018-04-17T13:06:48.806Z,42.58
2018-04-17T13:07:41.167Z,42.39
2018-04-17T13:08:41.433Z,39.39
2018-04-17T13:09:41.458Z,39.87
2018-04-17T13:10:41.687Z,39.01
2018-04-17T13:11:41.744Z,38.81
2018-04-17T13:12:42.008Z,39.20
2018-04-17T13:13:42.315Z,39.70
2018-04-17T13:14:42.257Z,40.67
2018-04-17T13:15:42.484Z,41.75
2018-04-17T13:16:42.640Z,39.53
2018-04-17T13:17:42.847Z,38.18
2018-04-17T13:18:43.018Z,37.60
2018-04-17T13:19:43.196Z,37.98
2018-04-17T13:20:43.415Z,40.11
2018-04-17T13:23:16.001Z,39.92
2018-04-17T13:24:16.169Z,39.55
2018-04-17T13:25:16.446Z,39.36
2018-04-17T13:26:16.538Z,39.36
2018-04-17T13:27:27.096Z,41.58
2018-04-17T13:28:16.851Z,39.45
2018-04-17T13:29:17.861Z,39.26
2018-04-17T13:30:17.469Z,38.68
2018-04-17T13:31:17.346Z,39.55
2018-04-17T13:32:17.556Z,38.10
2018-04-17T13:33:17.730Z,38.08
2018-04-17T13:34:17.921Z,38.56
2018-04-17T13:35:20.748Z,38.56
2018-04-17T13:36:18.313Z,39.43
2018-04-17T13:37:18.474Z,40.20
2018-04-17T13:38:18.650Z,40.78
2018-04-17T13:39:18.824Z,40.69
2018-04-17T13:40:18.991Z,41.27
2018-04-17T13:41:19.173Z,42.89
2018-04-17T13:42:27.308Z,44.07
2018-04-17T13:43:19.472Z,43.01
2018-04-17T13:44:19.644Z,40.69
2018-04-17T13:45:19.905Z,40.57
2018-04-17T13:46:19.944Z,41.83
2018-04-17T13:47:20.775Z,44.73
2018-04-17T13:48:20.319Z,43.18
2018-04-17T13:49:20.493Z,43.18
2018-04-17T13:50:27.835Z,44.05
2018-04-17T13:51:21.040Z,44.15
2018-04-17T13:52:21.085Z,45.31
2018-04-17T13:53:21.246Z,43.10
2018-04-17T13:54:21.416Z,42.70
2018-04-17T13:55:21.837Z,42.50
2018-04-17T13:56:21.760Z,42.21
2018-04-17T13:57:21.973Z,44.26
2018-04-17T13:58:22.199Z,43.88
2018-04-17T14:00:54.339Z,43.01
2018-04-17T14:01:54.510Z,42.93
2018-04-17T14:02:54.682Z,46.70
2018-04-17T14:03:54.851Z,42.65
2018-04-17T14:04:55.027Z,42.35
2018-04-17T14:05:55.212Z,41.27
2018-04-17T14:06:55.382Z,40.20
2018-04-17T14:07:55.554Z,40.88
2018-04-17T14:08:55.717Z,42.62
2018-04-17T14:09:55.920Z,41.87
2018-04-17T14:12:38.197Z,40.61
2018-04-17T14:13:38.439Z,39.64
2018-04-17T14:14:38.496Z,39.62
2018-04-17T14:15:38.656Z,40.59
2018-04-17T14:16:39.461Z,39.72
2018-04-17T14:17:39.015Z,41.56
2018-04-17T14:18:39.392Z,40.32
2018-04-17T14:19:46.766Z,39.84
2018-04-17T14:20:39.430Z,40.71
2018-04-17T14:21:39.599Z,39.45
2018-04-17T14:22:39.786Z,39.72
2018-04-17T14:23:40.742Z,40.78
2018-04-17T14:24:40.164Z,42.04
2018-04-17T14:25:40.334Z,42.52
2018-04-17T14:26:40.504Z,41.56
2018-04-17T14:27:40.675Z,42.62
2018-04-17T14:28:40.852Z,41.85
2018-04-17T14:29:41.024Z,41.85
2018-04-17T14:30:49.468Z,42.52
2018-04-17T14:31:48.551Z,42.91
2018-04-17T14:32:41.588Z,41.27
2018-04-17T14:33:41.763Z,41.46
2018-04-17T14:34:41.934Z,40.88
2018-04-17T14:35:42.105Z,41.75
2018-04-17T14:36:42.272Z,41.66
2018-04-17T14:37:42.447Z,41.17
2018-04-17T14:38:42.619Z,41.36
2018-04-17T14:39:50.257Z,41.73
2018-04-17T14:40:42.915Z,43.57
2018-04-17T14:41:43.133Z,43.10
2018-04-17T14:42:43.248Z,43.49
2018-04-17T14:43:43.448Z,43.68
2018-04-17T14:44:43.648Z,40.59
2018-04-17T14:45:43.767Z,40.01
2018-04-17T14:46:43.937Z,39.34
2018-04-17T14:47:44.112Z,40.67
2018-04-17T14:48:44.284Z,42.19
2018-04-17T14:49:44.508Z,40.38
2018-04-17T14:50:44.610Z,41.35
2018-04-17T14:51:52.497Z,40.67
2018-04-17T14:54:18.364Z,41.05
2018-04-17T14:55:18.481Z,42.21
2018-04-17T14:56:18.652Z,41.25
2018-04-17T14:57:20.548Z,41.08
2018-04-17T14:58:18.966Z,40.57
2018-04-17T14:59:19.217Z,39.82
2018-04-17T15:00:22.038Z,39.43
2018-04-17T15:01:27.937Z,40.69
2018-04-17T15:02:19.635Z,41.17
2018-04-17T15:03:19.819Z,40.59
2018-04-17T15:04:19.994Z,41.27
2018-04-17T15:05:20.162Z,41.27
2018-04-17T15:06:20.334Z,40.88
2018-04-17T15:07:20.502Z,40.96
2018-04-17T15:08:20.712Z,41.56
2018-04-17T15:09:20.886Z,41.17
2018-04-17T15:10:21.014Z,42.82
2018-04-17T15:11:22.018Z,42.43
2018-04-17T15:12:21.330Z,41.94
2018-04-17T15:13:22.107Z,42.52
2018-04-17T15:15:54.020Z,42.43
2018-04-17T15:16:54.201Z,43.01
2018-04-17T15:17:54.371Z,43.59
2018-04-17T15:18:54.536Z,44.84
2018-04-17T15:19:54.702Z,44.19
2018-04-17T15:20:54.877Z,43.51
2018-04-17T15:22:02.264Z,43.80
2018-04-17T15:22:55.178Z,44.48
2018-04-17T15:23:55.353Z,45.06
2018-04-17T15:24:55.525Z,44.46
2018-04-17T15:25:55.736Z,45.16
2018-04-17T15:26:55.880Z,44.87
2018-04-17T15:27:56.057Z,44.19
2018-04-17T15:28:56.265Z,44.19
2018-04-17T15:29:56.411Z,44.67
2018-04-17T15:30:56.575Z,44.87
2018-04-17T15:31:56.754Z,44.09
2018-04-17T15:32:56.929Z,42.83
2018-04-17T15:34:05.221Z,43.23
2018-04-17T15:34:57.297Z,43.51
2018-04-17T15:35:57.430Z,44.48
2018-04-17T15:36:57.490Z,45.45
2018-04-17T15:37:57.732Z,44.57
2018-04-17T15:38:57.797Z,43.99
2018-04-17T15:39:58.004Z,43.40
2018-04-17T15:40:58.176Z,43.30
2018-04-17T15:41:58.344Z,43.37
2018-04-17T15:42:58.529Z,43.66
2018-04-17T15:44:06.366Z,44.26
2018-04-17T15:44:59.003Z,46.20
2018-04-17T15:45:59.074Z,44.84
2018-04-17T15:46:59.243Z,42.99
2018-04-17T15:48:00.301Z,43.26
2018-04-17T15:49:00.300Z,43.84
2018-04-17T15:50:00.651Z,44.60
2018-04-17T15:50:59.959Z,44.22
2018-04-17T15:52:00.117Z,44.12
2018-04-17T15:53:00.312Z,44.60
2018-04-17T15:54:00.503Z,45.18
2018-04-17T15:55:08.352Z,44.53
2018-04-17T15:56:00.896Z,45.31
2018-04-17T15:57:01.062Z,44.73
2018-04-17T15:58:01.544Z,45.31
2018-04-17T15:59:02.312Z,46.66
2018-04-17T16:00:01.486Z,46.20
2018-04-17T16:01:01.718Z,44.75
2018-04-17T16:02:01.769Z,44.17
2018-04-17T16:03:01.918Z,44.94
2018-04-17T16:04:02.167Z,44.17
2018-04-17T16:05:02.226Z,44.43
2018-04-17T16:06:03.633Z,45.31
2018-04-17T16:07:10.334Z,46.44
2018-04-17T16:08:02.691Z,46.34
2018-04-17T16:09:02.885Z,45.98
2018-04-17T16:10:03.078Z,46.95
2018-04-17T16:11:03.247Z,47.14
2018-04-17T16:12:03.410Z,45.50
2018-04-17T16:13:03.589Z,45.40
2018-04-17T16:15:43.939Z,46.08
2018-04-17T16:16:35.763Z,44.82
2018-04-17T16:17:35.926Z,45.11
2018-04-17T16:18:36.099Z,46.44
2018-04-17T16:19:36.285Z,47.89
2018-04-17T16:20:36.457Z,48.18
2018-04-17T16:21:37.628Z,48.69
2018-04-17T16:22:36.753Z,48.11
2018-04-17T16:23:36.966Z,48.11
2018-04-17T16:24:37.135Z,46.37
2018-04-17T16:25:38.027Z,46.37
2018-04-17T16:29:17.956Z,48.01
2018-04-17T16:30:25.467Z,47.81
2018-04-17T16:31:18.137Z,47.43
2018-04-17T16:32:18.304Z,45.98
2018-04-17T16:33:18.473Z,44.80
2018-04-17T16:34:18.638Z,46.34
2018-04-17T16:35:18.812Z,47.53
2018-04-17T16:36:18.969Z,45.98
2018-04-17T16:37:19.144Z,46.66
2018-04-17T16:38:19.320Z,47.43
2018-04-17T16:39:19.485Z,47.91
2018-04-17T16:42:52.115Z,47.63
2018-04-17T16:43:51.981Z,47.14
2018-04-17T16:44:52.168Z,48.01
2018-04-17T16:45:52.913Z,48.21
2018-04-17T16:46:52.452Z,47.81
2018-04-17T16:47:52.625Z,47.91
2018-04-17T16:48:52.794Z,47.72
2018-04-17T16:49:52.958Z,47.53
2018-04-17T16:50:53.918Z,47.81
2018-04-17T16:51:53.334Z,48.11
2018-04-17T16:53:01.590Z,47.91
2018-04-17T16:53:53.743Z,47.72
2018-04-17T16:54:54.304Z,47.91
2018-04-17T16:55:54.104Z,48.59
2018-04-17T16:56:55.628Z,49.65
2018-04-17T16:57:54.537Z,48.97
2018-04-17T16:58:54.584Z,47.80
2018-04-17T17:00:03.035Z,47.43
2018-04-17T17:00:54.951Z,47.99
2018-04-17T17:01:55.139Z,49.55
2018-04-17T17:02:55.322Z,49.46
2018-04-17T17:04:02.958Z,49.63
2018-04-17T17:04:55.650Z,49.17
2018-04-17T17:05:55.821Z,49.92
2018-04-17T17:06:55.991Z,49.73
2018-04-17T17:07:56.157Z,49.15
2018-04-17T17:08:56.326Z,49.24
2018-04-17T17:09:56.507Z,49.22
2018-04-17T17:10:56.674Z,49.90
2018-04-17T17:11:56.844Z,50.18
2018-04-17T17:12:57.014Z,50.47
2018-04-17T17:13:57.184Z,51.15
2018-04-17T17:14:57.342Z,51.17
2018-04-17T17:15:57.513Z,51.27
2018-04-17T17:16:57.720Z,51.75
2018-04-17T17:17:57.863Z,52.04
2018-04-17T17:20:30.151Z,52.04
2018-04-17T17:21:30.347Z,51.07
2018-04-17T17:22:37.683Z,50.21
2018-04-17T17:23:30.751Z,49.92
2018-04-17T17:24:30.874Z,50.59
2018-04-17T17:25:31.049Z,50.59
2018-04-17T17:26:31.219Z,50.89
2018-04-17T17:27:31.376Z,51.17
2018-04-17T17:28:31.707Z,50.59
2018-04-17T17:29:31.760Z,51.37
2018-04-17T17:30:32.702Z,51.65
2018-04-17T17:31:32.144Z,50.01
2018-04-17T17:32:32.307Z,50.18
2018-04-17T17:35:04.601Z,50.31
2018-04-17T17:36:04.771Z,50.59
2018-04-17T17:37:04.955Z,49.34
2018-04-17T17:38:05.157Z,50.28
2018-04-17T17:39:05.329Z,49.99
2018-04-17T17:40:05.498Z,51.63
2018-04-17T17:41:05.675Z,51.15
2018-04-17T17:42:05.838Z,51.63
2018-04-17T17:43:06.011Z,51.44
2018-04-17T17:44:14.144Z,52.01
2018-04-17T17:45:06.294Z,52.57
2018-04-17T17:46:06.476Z,53.17
2018-04-17T17:47:06.658Z,52.98
2018-04-17T17:48:06.825Z,53.85
2018-04-17T17:49:06.992Z,54.82
2018-04-17T17:50:07.146Z,55.10
2018-04-17T17:51:07.327Z,55.59
2018-04-17T17:52:07.479Z,55.59
2018-04-17T17:53:15.116Z,56.65
2018-04-17T17:54:07.779Z,56.56
2018-04-17T17:55:07.952Z,57.32
2018-04-17T17:56:08.110Z,57.90
2018-04-17T17:57:08.296Z,58.58
2018-04-17T17:58:08.526Z,58.68
2018-04-17T17:59:15.848Z,58.29
2018-04-17T18:00:08.890Z,58.26
2018-04-17T18:01:09.053Z,58.75
2018-04-17T18:02:09.224Z,59.90
2018-04-17T18:03:09.386Z,62.51
2018-04-17T18:04:09.558Z,65.11
2018-04-17T18:05:09.735Z,66.94
2018-04-17T18:06:09.914Z,67.23
2018-04-17T18:07:10.083Z,68.10
2018-04-17T18:08:17.946Z,68.97
2018-04-17T18:09:10.362Z,69.26
2018-04-17T18:10:10.536Z,69.42
2018-04-17T18:11:10.710Z,70.09
2018-04-17T18:12:10.875Z,70.76
2018-04-17T18:13:11.037Z,70.76
2018-04-17T18:14:12.196Z,70.67
2018-04-17T18:15:12.198Z,69.90
2018-04-17T18:16:11.495Z,70.28
2018-04-17T18:17:11.660Z,70.48
2018-04-17T18:18:11.826Z,70.57
2018-04-17T18:19:11.996Z,69.96
2018-04-17T18:20:12.165Z,69.09
2018-04-17T18:21:12.337Z,69.19
2018-04-17T18:22:12.508Z,69.87
2018-04-17T18:23:12.674Z,69.19
2018-04-17T18:25:55.257Z,69.38
2018-04-17T18:26:55.434Z,69.06
2018-04-17T18:27:55.597Z,68.29
2018-04-17T18:28:55.777Z,66.55
2018-04-17T18:29:55.938Z,66.46
2018-04-17T18:30:56.107Z,66.27
2018-04-17T18:31:56.276Z,66.27
2018-04-17T18:32:56.446Z,65.94
2018-04-17T18:33:56.615Z,65.11
2018-04-17T18:34:56.784Z,66.33
2018-04-17T18:35:56.954Z,65.85
2018-04-17T18:36:57.124Z,65.94
2018-04-17T18:37:57.290Z,64.69
2018-04-17T18:38:57.458Z,63.73
2018-04-17T18:39:57.639Z,62.87
2018-04-17T18:48:48.409Z,61.10
2018-04-17T18:49:48.455Z,60.42
2018-04-17T18:50:56.093Z,60.52
2018-04-17T18:51:56.225Z,63.12
2018-04-17T18:52:48.898Z,63.70
2018-04-17T18:53:49.063Z,62.99
2018-04-17T18:54:49.232Z,62.64
2018-04-17T18:55:49.395Z,60.88
2018-04-17T18:56:49.565Z,60.21
2018-04-17T18:57:49.729Z,59.92
2018-04-17T18:58:49.896Z,60.21
2018-04-17T18:59:50.047Z,56.55
2018-04-17T19:00:50.237Z,58.95
2018-04-17T19:01:50.408Z,61.65
2018-04-17T19:02:50.579Z,62.41
2018-04-17T19:03:50.748Z,62.61
2018-04-17T19:04:50.912Z,61.55
2018-04-17T19:05:51.923Z,61.07
2018-04-17T19:08:33.320Z,57.13
2018-04-17T19:09:33.482Z,56.81
2018-04-17T19:10:33.658Z,56.62
2018-04-17T19:11:33.842Z,57.10
2018-04-17T19:12:34.032Z,57.00
2018-04-17T19:13:41.370Z,56.04
2018-04-17T19:14:34.409Z,55.76
2018-04-17T19:15:34.580Z,55.37
2018-04-17T19:16:34.750Z,54.89
2018-04-17T19:17:34.923Z,54.31
2018-04-17T19:18:35.091Z,53.83
2018-04-17T19:19:35.261Z,51.98
2018-04-17T19:20:35.418Z,50.54
2018-04-17T19:21:42.750Z,50.92
2018-04-17T19:22:35.787Z,50.63
2018-04-17T19:23:35.959Z,51.11
2018-04-17T19:24:36.126Z,49.57
2018-04-17T19:25:36.293Z,51.88
2018-04-17T19:26:36.523Z,55.05
2018-04-17T19:27:36.631Z,53.52
2018-04-17T19:28:36.801Z,51.11
2018-04-17T19:29:38.880Z,50.25
2018-04-17T19:30:37.172Z,49.57
2018-04-17T19:34:20.608Z,50.61
2018-04-17T19:35:20.774Z,50.51
2018-04-17T19:36:20.948Z,50.13
2018-04-17T19:37:21.117Z,48.11
2018-04-17T19:38:21.288Z,48.21
2018-04-17T19:39:21.457Z,47.63
2018-04-17T19:40:21.626Z,46.26
2018-04-17T19:41:21.794Z,46.74
2018-04-17T19:42:21.963Z,45.40
2018-04-17T19:43:22.127Z,44.63
2018-04-17T19:47:33.040Z,45.88
2018-04-17T19:48:32.834Z,46.17
2018-04-17T19:49:33.002Z,45.11
2018-04-17T19:50:33.171Z,45.21
2018-04-17T19:51:33.340Z,41.85
2018-04-17T19:52:33.512Z,42.90
2018-04-17T19:53:33.708Z,42.71
2018-04-17T19:54:33.838Z,43.55
2018-04-17T19:55:34.009Z,42.79
2018-04-17T19:56:34.179Z,41.63
2018-04-17T19:57:34.348Z,41.83
2018-04-17T19:58:34.511Z,40.58
2018-04-17T19:59:34.680Z,40.39
2018-04-17T20:00:34.847Z,40.48
2018-04-17T20:01:35.015Z,39.04
2018-04-17T20:04:07.585Z,37.70
2018-04-17T20:05:07.756Z,38.56
2018-04-17T20:06:07.921Z,37.89
2018-04-17T20:07:15.259Z,38.54
2018-04-17T20:08:08.305Z,34.61
2018-04-17T20:09:08.472Z,35.48
2018-04-17T20:10:08.640Z,33.56
2018-04-17T20:11:08.811Z,35.57
2018-04-17T20:12:08.975Z,36.53
2018-04-17T20:13:09.143Z,35.86
2018-04-17T20:14:09.302Z,36.15
2018-04-17T20:15:09.482Z,36.82
2018-04-17T20:16:09.656Z,35.28
2018-04-17T20:17:09.816Z,34.81
2018-04-17T20:18:09.982Z,33.47
2018-04-17T20:19:10.151Z,33.47
2018-04-17T20:20:10.317Z,31.64
2018-04-17T20:21:10.483Z,33.17
2018-04-17T20:23:52.751Z,33.45
2018-04-17T20:24:52.920Z,32.49
2018-04-17T20:25:53.088Z,32.39
2018-04-17T20:26:53.261Z,32.68
2018-04-17T20:27:53.427Z,32.20
2018-04-17T20:28:53.595Z,32.10
2018-04-17T20:29:53.763Z,31.63
2018-04-17T20:30:53.930Z,29.52
2018-04-17T20:31:54.095Z,29.98
2018-04-17T20:32:54.263Z,30.19
2018-04-17T20:33:54.431Z,29.22
2018-04-17T20:34:54.598Z,28.92
2018-04-17T20:35:54.767Z,28.64
2018-04-17T20:36:54.932Z,27.97
2018-04-17T20:37:55.101Z,28.45
2018-04-17T20:40:37.392Z,30.75
2018-04-17T20:41:37.561Z,32.28
2018-04-17T20:42:37.727Z,32.57
2018-04-17T20:43:37.899Z,34.87
2018-04-17T20:44:38.071Z,34.10
2018-04-17T20:45:38.240Z,35.16
2018-04-17T20:46:38.406Z,34.00
2018-04-17T20:47:38.575Z,35.25
2018-04-17T20:48:38.742Z,36.02
2018-04-17T20:49:38.911Z,36.11
2018-04-17T21:26:50.226Z,23.63
2018-04-17T21:27:50.398Z,23.16
2018-04-17T21:28:50.568Z,22.39
2018-04-17T21:29:50.736Z,22.01
2018-04-17T21:30:50.913Z,21.34
2018-04-17T21:31:51.064Z,22.87
2018-04-17T21:32:51.234Z,23.16
2018-04-17T21:33:51.407Z,23.06
2018-04-17T21:34:51.567Z,22.20
2018-04-17T21:35:51.737Z,20.67
2018-04-17T21:36:51.901Z,22.01
2018-04-17T21:37:52.073Z,22.01
2018-04-17T21:38:52.244Z,22.11
2018-04-17T21:39:52.409Z,20.48
2018-04-17T21:40:52.579Z,19.70
2018-04-17T21:43:34.860Z,19.03
2018-04-17T21:44:35.032Z,19.32
2018-04-17T21:45:35.196Z,18.55
2018-04-17T21:46:35.360Z,17.99
2018-04-17T21:47:35.525Z,18.66
2018-04-17T21:48:35.698Z,20.37
2018-04-17T21:49:35.860Z,20.56
2018-04-17T21:50:36.036Z,21.71
2018-04-17T21:51:36.205Z,20.56
2018-04-17T21:52:36.368Z,19.89
2018-04-17T21:53:36.541Z,19.60